Time;durP1;ratioP1;P1;durP2;ratioP2;P2;SDS_P1;SDS_P2;PMS_P1;PMS_P2;Temp;Humidity;BMP_temperature;BMP_pressure;BME280_temperature;BME280_humidity;BME280_pressure;Samples;Min_cycle;Max_cycle;Signal;HPM_P1;HPM_P2
2021/11/06 00:01:03;;;;;;;899.67;815.07;;;5.40;99.90;;;;;;5094584;28;20507;-83
2021/11/06 00:03:32;;;;;;;907.07;822.10;;;5.50;99.90;;;;;;5093563;28;20521;-83
2021/11/06 00:05:59;;;;;;;911.37;826.73;;;5.50;99.90;;;;;;5094465;28;20445;-83
2021/11/06 00:08:26;;;;;;;908.33;822.70;;;5.50;99.90;;;;;;5094668;28;20496;-83
2021/11/06 00:10:54;;;;;;;919.17;833.07;;;5.60;99.90;;;;;;5094269;28;20469;-83
2021/11/06 00:13:25;;;;;;;920.73;833.63;;;5.70;99.90;;;;;;5094391;28;20511;-83
2021/11/06 00:15:54;;;;;;;925.93;839.67;;;5.70;99.90;;;;;;5094359;28;20826;-83
2021/11/06 00:18:21;;;;;;;922.70;836.07;;;5.60;99.90;;;;;;5092929;28;20458;-83
2021/11/06 00:20:48;;;;;;;927.57;839.93;;;5.60;99.90;;;;;;5094452;28;20446;-83
2021/11/06 00:23:16;;;;;;;935.43;849.30;;;5.60;99.90;;;;;;5094182;28;20851;-83
2021/11/06 00:25:45;;;;;;;946.77;859.03;;;5.50;99.90;;;;;;5094110;28;20478;-83
2021/11/06 00:28:15;;;;;;;958.00;869.40;;;5.40;99.90;;;;;;5093990;28;20450;-83
2021/11/06 00:30:42;;;;;;;955.53;865.80;;;5.30;99.90;;;;;;5093814;28;20478;-83
2021/11/06 00:33:23;;;;;;;961.53;870.83;;;5.30;99.90;;;;;;5092765;28;20946;-83
2021/11/06 00:36:03;;;;;;;976.73;884.27;;;5.30;99.90;;;;;;5093836;28;20499;-83
2021/11/06 00:38:30;;;;;;;971.43;878.10;;;5.20;99.90;;;;;;5094137;28;20457;-83
2021/11/06 00:41:02;;;;;;;978.17;885.17;;;5.30;99.90;;;;;;5093962;28;20458;-83
2021/11/06 00:43:29;;;;;;;989.53;896.00;;;5.30;99.90;;;;;;5092808;28;20476;-83
2021/11/06 00:45:58;;;;;;;984.40;891.03;;;5.30;99.90;;;;;;5093725;28;20445;-83
2021/11/06 00:48:41;;;;;;;986.30;892.73;;;5.30;99.90;;;;;;5092730;28;20535;-83
2021/11/06 00:51:10;;;;;;;994.47;899.60;;;5.30;99.90;;;;;;5093739;28;20473;-83
2021/11/06 00:53:38;;;;;;;1010.90;915.40;;;5.10;99.90;;;;;;5093804;28;20457;-83
2021/11/06 00:56:09;;;;;;;981.30;887.23;;;5.10;99.90;;;;;;5093845;28;20457;-83
2021/11/06 00:58:42;;;;;;;979.87;885.13;;;5.20;99.90;;;;;;5093519;28;20454;-83
2021/11/06 01:01:12;;;;;;;993.83;899.80;;;5.20;99.90;;;;;;5093482;28;20868;-83
2021/11/06 01:03:53;;;;;;;;;;;;;;;;;;;;;
2021/11/06 01:06:31;;;;;;;;;;;;;;;;;;;;;
2021/11/06 01:09:02;;;;;;;990.93;895.90;;;5.20;99.90;;;;;;5093062;28;20502;-83
2021/11/06 01:11:30;;;;;;;991.63;896.03;;;5.10;99.90;;;;;;5093088;28;20477;-83
2021/11/06 01:14:00;;;;;;;1003.73;905.73;;;5.10;99.90;;;;;;5093399;28;20519;-83
2021/11/06 01:16:34;;;;;;;1007.40;912.00;;;5.10;99.90;;;;;;5093253;28;20477;-83
2021/11/06 01:19:03;;;;;;;1004.13;907.30;;;5.10;99.90;;;;;;5091922;28;20491;-82
2021/11/06 01:21:32;;;;;;;1026.87;929.13;;;5.00;99.90;;;;;;5092960;28;20522;-83
2021/11/06 01:24:06;;;;;;;1024.17;925.70;;;5.00;99.90;;;;;;5093194;28;20498;-83
2021/11/06 01:26:33;;;;;;;1013.43;916.27;;;5.00;99.90;;;;;;5092983;28;20482;-83
2021/11/06 01:29:04;;;;;;;1020.37;922.93;;;4.90;99.90;;;;;;5093002;28;20460;-83
2021/11/06 01:31:31;;;;;;;1023.27;926.67;;;4.90;99.90;;;;;;5092821;28;21150;-83
2021/11/06 01:34:03;;;;;;;1031.40;934.17;;;5.10;99.90;;;;;;5092058;28;20457;-83
2021/11/06 01:36:37;;;;;;;1025.67;928.50;;;5.00;99.90;;;;;;5092994;28;20450;-83
2021/11/06 01:39:05;;;;;;;1010.20;915.30;;;5.00;99.90;;;;;;5094070;28;20456;-83
2021/11/06 01:41:34;;;;;;;998.10;903.83;;;5.10;99.90;;;;;;5104152;28;20503;-83
2021/11/06 01:44:03;;;;;;;1006.70;911.67;;;5.00;99.90;;;;;;5092823;28;20552;-83
2021/11/06 01:46:40;;;;;;;;;;;;;;;;;;;;;
2021/11/06 01:49:20;;;;;;;;;;;;;;;;;;;;;
2021/11/06 01:52:14;;;;;;;992.93;898.90;;;5.20;99.90;;;;;;5092443;28;20580;-83
2021/11/06 01:54:46;;;;;;;991.10;898.03;;;5.20;99.90;;;;;;5089480;28;20449;-83
2021/11/06 01:57:13;;;;;;;985.97;893.00;;;5.20;99.90;;;;;;5097094;28;20453;-83
2021/11/06 01:59:40;;;;;;;983.23;890.67;;;5.10;99.90;;;;;;5096890;28;21006;-83
2021/11/06 02:02:11;;;;;;;992.67;898.67;;;5.20;99.90;;;;;;5096853;28;20811;-83
2021/11/06 02:04:54;;;;;;;986.03;892.90;;;4.90;99.90;;;;;;5095487;28;20477;-83
2021/11/06 02:07:25;;;;;;;981.93;888.30;;;5.00;99.90;;;;;;5096891;28;20839;-83
2021/11/06 02:09:58;;;;;;;960.70;867.10;;;4.90;99.90;;;;;;5096942;28;20453;-83
2021/11/06 02:12:29;;;;;;;966.70;871.53;;;4.90;99.90;;;;;;5096875;28;20484;-83
2021/11/06 02:15:15;;;;;;;959.90;867.03;;;4.80;99.90;;;;;;5096849;28;20801;-83
2021/11/06 02:17:43;;;;;;;938.00;845.00;;;4.70;99.90;;;;;;5096648;28;20548;-83
2021/11/06 02:20:17;;;;;;;942.30;846.27;;;4.80;99.90;;;;;;5095606;28;20450;-83
2021/11/06 02:22:48;;;;;;;945.07;851.57;;;4.70;99.90;;;;;;5096490;28;20445;-83
2021/11/06 02:25:16;;;;;;;945.63;851.13;;;4.70;99.90;;;;;;5096364;28;20517;-83
2021/11/06 02:27:46;;;;;;;938.73;845.37;;;4.70;99.90;;;;;;5096294;28;20936;-83
2021/11/06 02:30:16;;;;;;;947.60;853.47;;;4.50;99.90;;;;;;5096467;28;20453;-83
2021/11/06 02:32:47;;;;;;;955.20;860.97;;;4.60;99.90;;;;;;5096318;28;20482;-82
2021/11/06 02:35:19;;;;;;;948.23;855.07;;;4.70;99.90;;;;;;5095240;28;20449;-83
2021/11/06 02:37:50;;;;;;;932.47;839.20;;;4.80;99.90;;;;;;5096384;28;20506;-83
2021/11/06 02:40:17;;;;;;;937.63;846.13;;;4.70;99.90;;;;;;5096459;28;20453;-83
2021/11/06 02:42:46;;;;;;;931.80;840.70;;;4.80;99.90;;;;;;5096211;28;20555;-83
2021/11/06 02:45:23;;;;;;;927.60;835.90;;;4.80;99.90;;;;;;5096107;28;20484;-83
2021/11/06 02:47:56;;;;;;;935.60;843.40;;;4.80;99.90;;;;;;5096146;28;20509;-83
2021/11/06 02:50:23;;;;;;;928.37;835.07;;;4.80;99.90;;;;;;5042236;28;20473;-83
2021/11/06 02:52:52;;;;;;;921.60;829.60;;;4.80;99.90;;;;;;5095890;28;20584;-83
2021/11/06 02:55:27;;;;;;;921.13;829.23;;;4.70;99.90;;;;;;5095883;28;20454;-83
2021/11/06 02:57:54;;;;;;;932.37;840.37;;;4.60;99.90;;;;;;5095754;28;20495;-83
2021/11/06 03:00:26;;;;;;;924.40;832.63;;;4.70;99.90;;;;;;5095732;28;20507;-83
2021/11/06 03:02:57;;;;;;;919.60;829.60;;;4.70;99.90;;;;;;5095672;28;20449;-83
2021/11/06 03:05:24;;;;;;;924.93;833.93;;;4.60;99.90;;;;;;5094398;28;20442;-83
2021/11/06 03:07:53;;;;;;;911.90;821.20;;;4.60;99.90;;;;;;5094822;28;20814;-83
2021/11/06 03:10:25;;;;;;;909.53;819.10;;;4.70;99.90;;;;;;5095814;28;20445;-83
2021/11/06 03:12:52;;;;;;;918.50;827.43;;;4.70;99.90;;;;;;5095394;28;20485;-83
2021/11/06 03:15:34;;;;;;;913.37;823.20;;;4.60;99.90;;;;;;5095634;28;20458;-83
2021/11/06 03:18:01;;;;;;;921.20;830.67;;;4.60;99.90;;;;;;5095546;28;20453;-83
2021/11/06 03:20:28;;;;;;;915.67;825.70;;;4.60;99.90;;;;;;5094615;28;20441;-83
2021/11/06 03:23:00;;;;;;;924.73;833.83;;;4.60;99.90;;;;;;5095388;28;20449;-83
2021/11/06 03:25:29;;;;;;;907.67;818.07;;;4.60;99.90;;;;;;5095367;28;20478;-83
2021/11/06 03:27:57;;;;;;;907.10;818.13;;;4.70;99.90;;;;;;5095434;28;20458;-83
2021/11/06 03:30:25;;;;;;;924.73;834.53;;;4.60;99.90;;;;;;5095121;28;20539;-83
2021/11/06 03:32:53;;;;;;;931.20;840.40;;;4.60;99.90;;;;;;5095044;28;20477;-83
2021/11/06 03:35:23;;;;;;;926.40;837.23;;;4.60;99.90;;;;;;5093913;28;20487;-83
2021/11/06 03:37:50;;;;;;;904.23;814.63;;;4.50;99.90;;;;;;5095287;28;20452;-83
2021/11/06 03:40:20;;;;;;;910.30;820.63;;;4.60;99.90;;;;;;5095308;28;20450;-83
2021/11/06 03:42:47;;;;;;;914.67;825.23;;;4.50;99.90;;;;;;5094798;28;20481;-83
2021/11/06 03:45:15;;;;;;;914.13;825.20;;;4.50;99.90;;;;;;5095157;28;20495;-82
2021/11/06 03:47:44;;;;;;;903.83;814.80;;;4.50;99.90;;;;;;5094991;28;20877;-83
2021/11/06 03:50:16;;;;;;;914.57;824.83;;;4.50;99.90;;;;;;5093470;28;20442;-83
2021/11/06 03:52:45;;;;;;;933.40;843.70;;;4.50;99.90;;;;;;5094770;28;20651;-82
2021/11/06 03:55:19;;;;;;;925.90;836.13;;;4.40;99.90;;;;;;5094625;28;20453;-83
2021/11/06 03:57:48;;;;;;;898.03;809.40;;;4.50;99.90;;;;;;5094753;28;20454;-83
2021/11/06 04:00:18;;;;;;;907.83;819.53;;;4.60;99.90;;;;;;5094570;28;20983;-82
2021/11/06 04:02:46;;;;;;;911.07;822.50;;;4.50;99.90;;;;;;5094554;28;21001;-83
2021/11/06 04:05:14;;;;;;;917.00;829.53;;;4.50;99.90;;;;;;5093487;28;20511;-83
2021/11/06 04:07:42;;;;;;;912.70;825.53;;;4.50;99.90;;;;;;5094472;28;20458;-83
2021/11/06 04:10:13;;;;;;;918.73;832.03;;;4.50;99.90;;;;;;5094485;28;20511;-83
2021/11/06 04:12:41;;;;;;;924.70;837.40;;;4.60;99.90;;;;;;5089563;28;20477;-83
2021/11/06 04:15:24;;;;;;;904.67;817.73;;;4.50;99.90;;;;;;5094406;28;20449;-82
2021/11/06 04:17:59;;;;;;;914.20;827.63;;;4.60;99.90;;;;;;5093072;28;20540;-83
2021/11/06 04:20:26;;;;;;;902.73;816.87;;;4.50;99.90;;;;;;5093066;28;20522;-83
2021/11/06 04:22:53;;;;;;;907.50;821.03;;;4.60;99.90;;;;;;5094258;28;20508;-83
2021/11/06 04:25:25;;;;;;;919.90;833.50;;;4.60;99.90;;;;;;5094084;28;20484;-83
2021/11/06 04:27:52;;;;;;;911.03;825.43;;;4.70;99.90;;;;;;5094279;28;20800;-83
2021/11/06 04:30:19;;;;;;;911.10;825.47;;;4.50;99.90;;;;;;5094199;28;20822;-83
2021/11/06 04:32:55;;;;;;;913.00;827.30;;;4.50;99.90;;;;;;5093868;28;20491;-83
2021/11/06 04:35:22;;;;;;;904.70;819.50;;;4.70;99.90;;;;;;5092936;28;20806;-75
2021/11/06 04:37:53;;;;;;;890.57;805.37;;;4.60;99.90;;;;;;5093999;28;20449;-83
2021/11/06 04:40:20;;;;;;;889.93;803.90;;;4.60;99.90;;;;;;5094219;28;20507;-82
2021/11/06 04:42:47;;;;;;;894.37;808.83;;;4.60;99.90;;;;;;5102691;28;20536;-84
2021/11/06 04:45:17;;;;;;;883.43;797.90;;;4.50;99.90;;;;;;5113962;28;20539;-83
2021/11/06 04:47:44;;;;;;;880.03;795.20;;;4.60;99.90;;;;;;5114304;28;20529;-83
2021/11/06 04:50:20;;;;;;;885.97;801.50;;;4.60;99.90;;;;;;5112743;28;20444;-83
2021/11/06 04:52:47;;;;;;;884.03;799.47;;;4.50;99.90;;;;;;5113933;28;20484;-83
2021/11/06 04:55:16;;;;;;;904.73;819.70;;;4.50;99.90;;;;;;5113978;28;20449;-83
2021/11/06 04:57:43;;;;;;;909.13;824.00;;;4.50;99.90;;;;;;5113970;28;20480;-82
2021/11/06 05:00:13;;;;;;;890.47;805.67;;;4.40;99.90;;;;;;5113899;28;20491;-83
2021/11/06 05:02:56;;;;;;;893.03;808.60;;;4.50;99.90;;;;;;5080952;28;20464;-83
2021/11/06 05:05:24;;;;;;;870.77;788.10;;;4.60;99.90;;;;;;5092289;28;20471;-83
2021/11/06 05:07:59;;;;;;;844.03;761.93;;;4.90;99.90;;;;;;5093451;28;20489;-83
2021/11/06 05:10:30;;;;;;;854.73;773.20;;;4.80;99.90;;;;;;5093253;28;20854;-83
2021/11/06 05:12:59;;;;;;;857.47;775.57;;;4.90;99.90;;;;;;5093308;28;20474;-83
2021/11/06 05:15:30;;;;;;;848.53;766.70;;;4.90;99.90;;;;;;5093257;28;20507;-83
2021/11/06 05:17:58;;;;;;;850.63;769.93;;;5.00;99.90;;;;;;5092902;28;20477;-83
2021/11/06 05:20:27;;;;;;;856.00;776.17;;;4.90;99.90;;;;;;5091824;28;20537;-83
2021/11/06 05:25:47;;;;;;;;;;;;;;;;;;;;;
2021/11/06 05:28:15;;;;;;;845.60;765.17;;;4.80;99.90;;;;;;5092972;28;20824;-83
2021/11/06 05:30:44;;;;;;;852.17;771.17;;;4.80;99.90;;;;;;5092644;28;20537;-83
2021/11/06 05:33:12;;;;;;;864.20;784.00;;;5.00;99.90;;;;;;5091571;28;20481;-83
2021/11/06 05:35:41;;;;;;;852.83;774.03;;;4.90;99.90;;;;;;5093076;28;20502;-83
2021/11/06 05:38:12;;;;;;;851.77;773.43;;;5.00;99.90;;;;;;5093039;28;20487;-83
2021/11/06 05:40:39;;;;;;;872.63;793.77;;;4.90;99.90;;;;;;5092920;28;20987;-84
2021/11/06 05:43:06;;;;;;;856.60;777.60;;;4.80;99.90;;;;;;5092885;28;20936;-83
2021/11/06 05:45:33;;;;;;;856.70;778.63;;;4.80;99.90;;;;;;5092831;28;20453;-83
2021/11/06 05:48:00;;;;;;;857.07;778.77;;;4.80;99.90;;;;;;5092780;28;20469;-83
2021/11/06 05:53:51;;;;;;;850.47;772.67;;;4.90;99.90;;;;;;5062162;28;20469;-83
2021/11/06 05:56:26;;;;;;;840.60;763.90;;;4.90;99.90;;;;;;5092701;28;20457;-83
2021/11/06 05:58:57;;;;;;;826.03;750.27;;;4.80;99.90;;;;;;5092904;28;20501;-83
2021/11/06 06:01:24;;;;;;;826.90;752.77;;;4.80;99.90;;;;;;5092612;28;20503;-83
2021/11/06 06:03:53;;;;;;;835.13;760.17;;;4.80;99.90;;;;;;5091492;28;20502;-83
2021/11/06 06:06:36;;;;;;;831.00;756.17;;;4.80;99.90;;;;;;5092872;28;20472;-83
2021/11/06 06:09:06;;;;;;;816.07;742.07;;;5.00;99.90;;;;;;5092786;28;20449;-83
2021/11/06 06:11:34;;;;;;;819.10;746.53;;;5.00;99.90;;;;;;5092824;28;20540;-83
2021/11/06 06:14:11;;;;;;;813.43;744.63;;;5.10;99.90;;;;;;5092604;28;20513;-84
2021/11/06 06:16:42;;;;;;;828.80;760.50;;;5.10;99.90;;;;;;5092714;28;20944;-83
2021/11/06 06:19:09;;;;;;;841.73;773.13;;;5.20;99.90;;;;;;5091259;28;20939;-83
2021/11/06 06:21:36;;;;;;;840.60;772.87;;;4.80;99.90;;;;;;5092596;28;20458;-83
2021/11/06 06:24:05;;;;;;;828.17;760.53;;;4.80;99.90;;;;;;5092726;28;20449;-83
2021/11/06 06:26:34;;;;;;;832.90;764.80;;;4.70;99.90;;;;;;5092351;28;21016;-83
2021/11/06 06:29:01;;;;;;;826.30;756.73;;;4.70;99.90;;;;;;5092372;28;20452;-83
2021/11/06 06:31:28;;;;;;;820.67;751.77;;;4.70;99.90;;;;;;5092351;28;20453;-82
2021/11/06 06:33:55;;;;;;;822.33;753.20;;;4.70;99.90;;;;;;5091103;28;20485;-82
2021/11/06 06:36:26;;;;;;;817.23;748.23;;;4.70;99.90;;;;;;5092412;28;20865;-83
2021/11/06 06:38:53;;;;;;;812.37;744.03;;;4.80;99.90;;;;;;5092351;28;20450;-83
2021/11/06 06:41:21;;;;;;;807.30;739.17;;;4.70;99.90;;;;;;5094406;28;20541;-82
2021/11/06 06:43:48;;;;;;;808.17;740.33;;;4.70;99.90;;;;;;5096260;28;20552;-82
2021/11/06 06:46:15;;;;;;;791.83;725.00;;;4.60;99.90;;;;;;5096177;28;20497;-83
2021/11/06 06:48:42;;;;;;;792.60;725.83;;;4.70;99.90;;;;;;5094790;28;20480;-83
2021/11/06 06:51:09;;;;;;;799.80;733.10;;;4.80;99.90;;;;;;5096127;28;20465;-83
2021/11/06 06:53:37;;;;;;;797.60;732.30;;;4.70;99.90;;;;;;5095514;28;20513;-83
2021/11/06 06:56:07;;;;;;;790.37;725.47;;;4.70;99.90;;;;;;5095990;28;20510;-82
2021/11/06 06:58:38;;;;;;;782.30;719.20;;;4.70;99.90;;;;;;5095878;28;20548;-82
2021/11/06 07:01:05;;;;;;;794.63;731.43;;;4.80;99.90;;;;;;5095662;28;20571;-82
2021/11/06 07:03:32;;;;;;;800.03;736.00;;;4.90;99.90;;;;;;5094665;28;20446;-83
2021/11/06 07:06:03;;;;;;;802.60;739.10;;;4.80;99.90;;;;;;5095624;28;20449;-83
2021/11/06 07:08:31;;;;;;;798.90;736.37;;;4.70;99.90;;;;;;5094427;28;20449;-82
2021/11/06 07:10:58;;;;;;;794.80;731.37;;;4.80;99.90;;;;;;5095542;28;20518;-81
2021/11/06 07:13:33;;;;;;;797.47;734.57;;;4.90;99.90;;;;;;5095266;28;20473;-82
2021/11/06 07:16:11;;;;;;;787.97;724.80;;;5.00;99.90;;;;;;5095530;28;20828;-82
2021/11/06 07:18:38;;;;;;;781.77;721.20;;;5.00;99.90;;;;;;5094195;28;20453;-82
2021/11/06 07:21:05;;;;;;;775.57;716.57;;;5.20;99.90;;;;;;5095483;28;20454;-82
2021/11/06 07:23:32;;;;;;;765.67;708.77;;;5.40;99.90;;;;;;5095579;28;20454;-82
2021/11/06 07:26:02;;;;;;;760.17;706.57;;;5.50;99.90;;;;;;5095018;28;20473;-82
2021/11/06 07:28:29;;;;;;;766.13;712.63;;;5.60;99.90;;;;;;5095515;28;20514;-82
2021/11/06 07:30:57;;;;;;;763.33;711.23;;;5.60;99.90;;;;;;5095205;28;20460;-84
2021/11/06 07:33:25;;;;;;;759.67;708.43;;;5.70;99.90;;;;;;5093789;28;21152;-83
2021/11/06 07:35:52;;;;;;;756.83;705.23;;;5.70;99.90;;;;;;5095245;28;20956;-82
2021/11/06 07:38:19;;;;;;;772.90;720.90;;;5.80;99.90;;;;;;5095161;28;20453;-82
2021/11/06 07:40:46;;;;;;;757.13;706.83;;;5.80;99.90;;;;;;5094958;28;20454;-82
2021/11/06 07:43:13;;;;;;;748.10;698.60;;;5.80;99.90;;;;;;5095191;28;20450;-82
2021/11/06 07:45:41;;;;;;;737.10;688.80;;;5.90;99.90;;;;;;5095061;28;20457;-82
2021/11/06 07:48:08;;;;;;;708.33;665.63;;;5.90;99.90;;;;;;5094187;28;20511;-82
2021/11/06 07:50:36;;;;;;;684.77;645.13;;;6.00;99.90;;;;;;5095273;28;20457;-82
2021/11/06 07:53:04;;;;;;;660.57;624.43;;;6.20;99.90;;;;;;5094024;28;20556;-82
2021/11/06 07:55:31;;;;;;;573.27;546.40;;;6.20;99.90;;;;;;5094966;28;20453;-82
2021/11/06 07:57:57;;;;;;;516.77;494.97;;;6.40;99.90;;;;;;5094683;28;20486;-82
2021/11/06 08:00:24;;;;;;;452.10;434.00;;;6.40;99.90;;;;;;5094723;28;20861;-82
2021/11/06 08:02:51;;;;;;;338.40;325.83;;;6.40;99.90;;;;;;5094593;28;20481;-82
2021/11/06 08:05:19;;;;;;;276.37;265.97;;;6.50;99.90;;;;;;5093285;28;20456;-82
2021/11/06 08:08:32;;;;;;;;;;;;;;;;;;;;;
2021/11/06 08:11:07;;;;;;;217.73;209.77;;;6.70;99.90;;;;;;5082919;28;20461;-83
2021/11/06 08:13:41;;;;;;;144.03;138.20;;;6.70;99.90;;;;;;5094463;28;20598;-82
2021/11/06 08:16:09;;;;;;;108.93;104.13;;;6.70;99.90;;;;;;5094224;28;20872;-83
2021/11/06 08:18:38;;;;;;;144.27;137.80;;;6.80;99.40;;;;;;5057627;28;20450;-83
2021/11/06 08:21:43;;;;;;;150.77;144.77;;;6.80;98.80;;;;;;5094096;28;20522;-84
2021/11/06 08:24:09;;;;;;;124.53;119.47;;;6.80;99.30;;;;;;5092009;28;20449;-82
2021/11/06 08:26:47;;;;;;;153.37;146.90;;;7.00;98.90;;;;;;5092596;28;20481;-83
2021/11/06 08:29:39;;;;;;;118.07;113.03;;;7.10;99.60;;;;;;5092876;28;20798;-85
2021/11/06 08:32:20;;;;;;;145.33;139.13;;;7.20;98.30;;;;;;5049402;28;20450;-84
2021/11/06 08:34:47;;;;;;;171.90;165.53;;;7.10;99.00;;;;;;5092627;28;20491;-84
2021/11/06 08:37:14;;;;;;;185.47;178.13;;;7.20;98.60;;;;;;5093899;28;20453;-84
2021/11/06 08:39:42;;;;;;;97.30;92.70;;;7.30;98.70;;;;;;5093714;28;20453;-84
2021/11/06 08:42:11;;;;;;;100.37;95.97;;;7.40;98.30;;;;;;5093952;28;20529;-84
2021/11/06 08:44:37;;;;;;;84.43;80.47;;;7.60;97.40;;;;;;5093837;28;20507;-78
2021/11/06 08:47:05;;;;;;;88.93;84.70;;;7.60;97.50;;;;;;5093760;28;20834;-82
2021/11/06 08:49:51;;;;;;;75.73;71.37;;;7.80;98.30;;;;;;5092493;28;20446;-83
2021/11/06 08:52:25;;;;;;;58.10;55.03;;;7.90;97.20;;;;;;5094006;28;20785;-84
2021/11/06 08:54:55;;;;;;;61.47;58.37;;;7.80;96.90;;;;;;5093666;28;20484;-84
2021/11/06 08:57:49;;;;;;;72.93;69.03;;;7.90;96.80;;;;;;5093575;28;20460;-85
2021/11/06 09:00:25;;;;;;;51.47;48.53;;;7.80;97.20;;;;;;5035092;28;20464;-85
2021/11/06 09:02:52;;;;;;;49.23;46.53;;;7.90;96.20;;;;;;5093381;28;20453;-85
2021/11/06 09:05:19;;;;;;;28.97;26.07;;;8.00;95.70;;;;;;5091728;28;20825;-86
2021/11/06 09:07:50;;;;;;;30.40;28.23;;;8.10;95.40;;;;;;5093388;28;20536;-83
2021/11/06 09:10:21;;;;;;;26.00;24.03;;;8.20;94.90;;;;;;5093220;28;20457;-80
2021/11/06 09:12:52;;;;;;;32.20;29.70;;;8.30;94.40;;;;;;5093424;28;20959;-84
2021/11/06 09:15:25;;;;;;;47.77;44.73;;;8.50;94.70;;;;;;5093186;28;20828;-84
2021/11/06 09:17:55;;;;;;;26.57;24.60;;;8.60;94.80;;;;;;5093236;28;20879;-84
2021/11/06 09:20:36;;;;;;;27.10;24.70;;;8.70;94.30;;;;;;5092159;28;20445;-84
2021/11/06 09:23:07;;;;;;;31.20;28.57;;;8.70;93.30;;;;;;5093198;28;20478;-83
2021/11/06 09:25:36;;;;;;;25.07;22.93;;;8.80;93.40;;;;;;5092801;28;20485;-83
2021/11/06 09:28:08;;;;;;;17.03;15.00;;;8.80;92.80;;;;;;5093154;28;20937;-84
2021/11/06 09:30:39;;;;;;;17.43;15.20;;;8.90;91.00;;;;;;5093018;28;20476;-84
2021/11/06 09:33:08;;;;;;;17.13;14.80;;;9.00;90.90;;;;;;5092672;28;20808;-84
2021/11/06 09:35:37;;;;;;;14.70;13.20;;;8.90;90.50;;;;;;5092744;28;21045;-84
2021/11/06 09:38:06;;;;;;;19.93;13.50;;;8.90;90.40;;;;;;5093242;28;20519;-84
2021/11/06 09:40:47;;;;;;;18.00;13.10;;;9.10;89.70;;;;;;5093021;28;20445;-84
2021/11/06 09:43:33;;;;;;;21.53;15.13;;;9.10;90.30;;;;;;5093041;28;20460;-84
2021/11/06 09:48:45;;;;;;;14.60;12.63;;;9.40;88.00;;;;;;5090109;28;20449;-84
2021/11/06 09:51:19;;;;;;;13.93;12.43;;;9.60;90.00;;;;;;5092929;28;20454;-84
2021/11/06 09:54:00;;;;;;;14.90;11.53;;;9.90;84.20;;;;;;5092938;28;20468;-84
2021/11/06 09:56:36;;;;;;;14.93;10.67;;;10.40;80.10;;;;;;5091988;28;20598;-84
2021/11/06 09:59:07;;;;;;;14.80;9.50;;;11.00;74.40;;;;;;5093084;28;20471;-84
2021/11/06 10:01:36;;;;;;;12.00;8.67;;;11.10;67.50;;;;;;5092627;28;20490;-85
2021/11/06 10:04:13;;;;;;;13.50;8.80;;;11.60;66.70;;;;;;5091595;28;20449;-84
2021/11/06 10:06:44;;;;;;;13.77;8.23;;;11.80;62.60;;;;;;5092576;28;20537;-84
2021/11/06 10:09:17;;;;;;;14.67;8.93;;;12.20;64.20;;;;;;5103681;28;20458;-84
2021/11/06 10:11:48;;;;;;;14.27;6.73;;;12.70;60.10;;;;;;5093495;28;20506;-85
2021/11/06 10:14:22;;;;;;;9.93;6.30;;;12.50;54.90;;;;;;5092914;28;20476;-84
2021/11/06 10:16:55;;;;;;;12.90;6.27;;;12.60;54.80;;;;;;5095418;28;20450;-85
2021/11/06 10:19:25;;;;;;;11.40;6.90;;;12.90;54.60;;;;;;5095830;28;20537;-84
2021/11/06 10:22:04;;;;;;;8.90;5.87;;;13.30;53.80;;;;;;5096637;28;20469;-84
2021/11/06 10:25:17;;;;;;;8.90;6.10;;;13.30;51.00;;;;;;5096341;28;20455;-84
2021/11/06 10:27:50;;;;;;;11.17;5.50;;;13.50;50.50;;;;;;5096386;28;20972;-84
2021/11/06 10:30:24;;;;;;;10.27;6.27;;;13.70;47.90;;;;;;5096526;28;20546;-84
2021/11/06 10:33:00;;;;;;;9.60;5.90;;;13.40;48.60;;;;;;5096316;28;20453;-84
2021/11/06 10:35:35;;;;;;;14.60;7.40;;;14.00;50.20;;;;;;5093582;28;20491;-78
2021/11/06 10:38:08;;;;;;;9.00;5.33;;;14.30;47.90;;;;;;5095036;28;20868;-83
2021/11/06 10:40:47;;;;;;;6.90;4.40;;;14.70;45.20;;;;;;5095453;28;20501;-84
2021/11/06 10:43:17;;;;;;;10.73;5.20;;;14.40;44.70;;;;;;5095267;28;20837;-82
2021/11/06 10:45:48;;;;;;;12.80;6.47;;;14.50;43.10;;;;;;5096132;28;20497;-82
2021/11/06 10:48:25;;;;;;;7.73;4.93;;;14.80;43.90;;;;;;5094694;28;20450;-83
2021/11/06 10:50:57;;;;;;;8.83;5.03;;;14.90;43.10;;;;;;5096052;28;20447;-82
2021/11/06 10:53:51;;;;;;;7.63;4.60;;;15.20;42.90;;;;;;5095948;28;20443;-82
2021/11/06 10:56:42;;;;;;;14.50;5.60;;;15.20;43.00;;;;;;5076805;28;20462;-82
2021/11/06 10:59:21;;;;;;;14.13;6.20;;;15.60;42.20;;;;;;5089844;28;20454;-82
2021/11/06 11:02:08;;;;;;;6.97;4.23;;;15.30;40.10;;;;;;5095758;28;20460;-83
2021/11/06 11:04:49;;;;;;;7.13;3.40;;;14.20;41.10;;;;;;5094959;28;20458;-83
2021/11/06 11:22:27;;;;;;;7.60;4.10;;;12.80;50.00;;;;;;4848170;29;20544;-86
2021/11/06 11:28:28;;;;;;;8.93;4.87;;;13.30;50.20;;;;;;4884751;29;20441;-84
2021/11/06 11:31:10;;;;;;;9.10;4.50;;;13.10;53.00;;;;;;5013133;28;20457;-83
2021/11/06 11:33:38;;;;;;;11.97;5.17;;;12.80;50.70;;;;;;5012062;28;20552;-85
2021/11/06 11:40:38;;;;;;;5.87;3.80;;;13.00;52.00;;;;;;4859724;29;20457;-87
2021/11/06 12:37:24;;;;;;;4.97;1.87;;;13.90;46.80;;;;;;4953435;28;20284;-84
2021/11/06 14:03:11;;;;;;;;;;;;;;;;;;;;;
2021/11/06 14:06:37;;;;;;;4.77;1.67;;;12.20;49.30;;;;;;4855709;29;20462;-85
2021/11/06 14:09:28;;;;;;;5.77;2.30;;;12.00;51.00;;;;;;4840025;29;20468;-87
2021/11/06 14:12:21;;;;;;;5.63;2.00;;;11.90;52.40;;;;;;4882298;29;20465;-86
2021/11/06 14:18:09;;;;;;;7.50;2.10;;;11.80;54.10;;;;;;4951911;29;20520;-85
2021/11/06 14:21:21;;;;;;;5.47;2.23;;;11.60;53.10;;;;;;4943325;28;20460;-85
2021/11/06 14:23:48;;;;;;;6.10;2.30;;;11.60;54.70;;;;;;5011757;28;20544;-89
2021/11/06 14:34:07;;;;;;;;;;;;;;;;;;;;;
2021/11/06 14:39:57;;;;;;;7.93;2.93;;;11.40;55.00;;;;;;4987771;28;20456;-84
2021/11/06 14:46:44;;;;;;;6.90;2.70;;;11.30;56.30;;;;;;5003999;28;20500;-84
2021/11/06 14:49:42;;;;;;;12.30;3.90;;;11.20;56.70;;;;;;5009818;28;20480;-88
2021/11/06 14:55:44;;;;;;;6.37;3.03;;;11.10;57.20;;;;;;4972681;28;20548;-86
2021/11/06 14:59:00;;;;;;;8.17;3.13;;;11.00;56.90;;;;;;5010167;28;20461;-88
2021/11/06 15:11:35;;;;;;;7.20;3.83;;;10.90;60.50;;;;;;4892293;29;20455;-88
2021/11/06 15:17:32;;;;;;;6.13;3.80;;;10.80;60.40;;;;;;4932236;29;20480;-86
2021/11/06 15:20:33;;;;;;;7.50;4.70;;;10.80;61.70;;;;;;4934789;29;20522;-87
2021/11/06 15:23:13;;;;;;;13.23;4.37;;;10.70;61.60;;;;;;4935927;29;20539;-87
2021/11/06 15:26:30;;;;;;;;;;;;;;;;;;;;;
2021/11/06 15:35:25;;;;;;;;;;;;;;;;;;;;;
2021/11/06 15:38:12;;;;;;;7.87;4.37;;;10.60;61.50;;;;;;4995539;28;20457;-88
2021/11/06 15:41:05;;;;;;;5.80;3.70;;;10.70;61.60;;;;;;4993459;28;21043;-87
2021/11/06 15:47:43;;;;;;;8.70;3.70;;;10.70;61.60;;;;;;4953680;28;20460;-86
2021/11/06 16:03:40;;;;;;;5.80;3.60;;;10.60;61.50;;;;;;4778728;29;21287;-89
2021/11/06 16:36:11;;;;;;;6.60;4.40;;;10.50;64.40;;;;;;4858272;29;20520;-87
2021/11/06 16:48:33;;;;;;;7.90;5.33;;;10.50;64.20;;;;;;4858521;29;20488;-85
2021/11/06 16:51:36;;;;;;;9.17;5.70;;;10.60;64.20;;;;;;4844149;29;20461;-86
2021/11/06 16:54:41;;;;;;;9.67;6.03;;;10.60;63.30;;;;;;4888854;29;20521;-85
2021/11/06 16:57:19;;;;;;;14.10;6.93;;;10.60;64.00;;;;;;4892477;29;20488;-85
2021/11/06 17:00:20;;;;;;;7.80;6.47;;;10.70;64.40;;;;;;4973222;28;20508;-86
2021/11/06 17:02:55;;;;;;;6.97;4.97;;;10.70;63.20;;;;;;4992730;28;20461;-86
2021/11/06 17:06:16;;;;;;;7.13;4.50;;;10.70;61.60;;;;;;4992420;28;20446;-86
2021/11/06 17:09:13;;;;;;;7.40;4.97;;;10.70;61.70;;;;;;4932467;29;20874;-87
2021/11/06 17:12:23;;;;;;;8.90;6.20;;;10.70;61.60;;;;;;4975128;28;20458;-86
2021/11/06 17:18:08;;;;;;;11.03;5.60;;;10.80;61.70;;;;;;5006786;28;20477;-86
2021/11/06 17:20:41;;;;;;;8.43;4.67;;;10.80;62.40;;;;;;5011299;28;20460;-86
2021/11/06 17:23:47;;;;;;;8.00;5.03;;;10.70;61.60;;;;;;5012244;28;20457;-86
2021/11/06 17:26:26;;;;;;;8.67;5.83;;;10.70;63.50;;;;;;5009069;28;20900;-86
2021/11/06 17:29:12;;;;;;;8.43;6.90;;;10.60;63.70;;;;;;5012124;28;20452;-85
2021/11/06 17:32:03;;;;;;;10.47;9.37;;;10.60;64.60;;;;;;4992533;28;20541;-85
2021/11/06 17:34:52;;;;;;;7.70;5.53;;;10.70;64.10;;;;;;4988337;28;20462;-85
2021/11/06 17:37:26;;;;;;;9.87;6.23;;;10.60;63.00;;;;;;4992425;28;20853;-85
2021/11/06 17:45:59;;;;;;;9.33;7.70;;;10.80;63.60;;;;;;4950927;28;20458;-85
2021/11/06 17:49:21;;;;;;;;;;;;;;;;;;;;;